Kezdőlap
METAR-TAF:

METAR-TAF

Repülőterek :

Newport State Airport

Newport, Rhode Island, Amerikai Egyesült Államok

földrajzi szélesség: 41-31-48N, földrajzi hosszúság: 071-17-01W, magasság: 52 m

Jelenlegi meteorológiai megfigyelések

A jelentés 21 perccel ezelõtt készült, 15:53 UTC
Északi szél 9 kt
Hőmérséklet 13°C
Páratartalom 35%
Légköri nyomás 1016 hPa
Látótávolság: 16.1 km
Derült ég

METAR: KUUU 061553Z AUTO 35009KT 10SM CLR 13/M02 A3000 RMK AO2 SLP157 T01331017

Idő: 12:14 (16:14 UTC)


TAF: hiányzik

Meteorológiai megfigyelések és előrejelzések több, mint 4000 repülőtéren (METAR és TAF jelentéseket).

A térképen piros és sárga pontok jelzik az elérhető meteorológiai állomásokat.

Mozgassa az egeret a pont fölött, hogy megjelenjen az állomás neve.

Azután kattintson az időjárási megfigyelések és előrejelzések megtekintéséhez.

A térkép megváltoztatása: kattintson a fekete keresztel jelölt zöld gombra ráközelítéshez, a vonallal jelölt zöld gombra távolításhoz, vagy a zöld nyilakra a szomszédos térképek eléréséhez.


METAR-TAF: